PWSweather.com
Personal Weather Stations
Station Observations
SHAHALMS1
Eftra, Falkenberg, HA

EftraFalkenberg, HA

Lat: 56.85, Lon: 12.65

Elevation: 140

Station Type:

http://hem.passagen.se/risarp101

High Low Average
Temperature 66.6°F19.2°C 56.1°F13.4°C 61.7°F16.5°C
Dew Point 58.4°F14.7°C 46.6°F8.1°C 51.0°F10.6°C
Winds 8.9 mph 14.3 kmh 1.7 mph 2.7 kmh 6.0 mph WNW9.7 kmh WNW
Wind Gusts 29.0 mph46.7 kmh 5.4 mph8.7 kmh 18.0 mph29.0 kmh
Humidity 96% 59% 69%
Pressure 30.04 in1017.3 mb 29.62 in1003.0 mb -
Precipitation 0.00 in0.0 mm - -
Hour Temp Dew Point Humidity Winds Wind Gusts Pressure Precip Precip Rate Daily Precip Total
12:00 AM 59.5°F15.3°C 58.4°F14.7°C 96% 4.3 mph W6.9 kmh W 8.6 mph13.8 kmh 29.62 in1003.0 mb 0.00 in0.0 mm 0.00 in0.0 mm 0.00 in0.0 mm
12:15 AM 59.5°F15.3°C 58.4°F14.7°C 96% 5.1 mph W8.2 kmh W 13.6 mph21.9 kmh 29.62 in1003.0 mb 0.00 in0.0 mm 0.00 in0.0 mm 0.00 in0.0 mm
12:30 AM 59.5°F15.3°C 58.4°F14.7°C 96% 4.7 mph WNW7.6 kmh WNW 13.6 mph21.9 kmh 29.62 in1003.0 mb 0.00 in0.0 mm 0.00 in0.0 mm 0.00 in0.0 mm
12:45 AM 59.0°F15.0°C 57.6°F14.2°C 95% 5.3 mph WNW8.5 kmh WNW 12.5 mph20.1 kmh 29.65 in1004.1 mb 0.00 in0.0 mm 0.00 in0.0 mm 0.00 in0.0 mm
02:45 AM 57.2°F14.0°C 53.4°F11.9°C 87% 5.7 mph WNW9.2 kmh WNW 16.1 mph25.9 kmh 29.68 in1005.1 mb 0.00 in0.0 mm 0.00 in0.0 mm 0.00 in0.0 mm
04:30 AM 56.1°F13.4°C 50.0°F10.0°C 80% 4.5 mph NW7.2 kmh NW 7.5 mph12.1 kmh 29.65 in1004.1 mb 0.00 in0.0 mm 0.00 in0.0 mm 0.00 in0.0 mm
04:45 AM 56.3°F13.5°C 49.5°F9.7°C 78% 5.2 mph NW8.4 kmh NW 7.8 mph12.6 kmh 29.68 in1005.1 mb 0.00 in0.0 mm 0.00 in0.0 mm 0.00 in0.0 mm
05:00 AM 56.5°F13.6°C 50.0°F10.0°C 79% 4.0 mph WNW6.4 kmh WNW 12.5 mph20.1 kmh 29.65 in1004.1 mb 0.00 in0.0 mm 0.00 in0.0 mm 0.00 in0.0 mm
05:15 AM 56.5°F13.6°C 50.0°F10.0°C 79% 4.0 mph NW6.4 kmh NW 10.0 mph16.1 kmh 29.65 in1004.1 mb 0.00 in0.0 mm 0.00 in0.0 mm 0.00 in0.0 mm
05:30 AM 56.7°F13.7°C 49.9°F9.9°C 78% 7.4 mph W11.9 kmh W 21.1 mph34.0 kmh 29.65 in1004.1 mb 0.00 in0.0 mm 0.00 in0.0 mm 0.00 in0.0 mm
05:45 AM 57.0°F13.9°C 50.2°F10.1°C 78% 6.3 mph WSW10.1 kmh WSW 16.8 mph27.0 kmh 29.65 in1004.1 mb 0.00 in0.0 mm 0.00 in0.0 mm 0.00 in0.0 mm
06:00 AM 57.2°F14.0°C 50.4°F10.2°C 78% 6.0 mph WNW9.7 kmh WNW 22.9 mph36.9 kmh 29.68 in1005.1 mb 0.00 in0.0 mm 0.00 in0.0 mm 0.00 in0.0 mm
06:15 AM 57.6°F14.2°C 50.8°F10.4°C 78% 7.4 mph WNW11.9 kmh WNW 12.9 mph20.8 kmh 29.68 in1005.1 mb 0.00 in0.0 mm 0.00 in0.0 mm 0.00 in0.0 mm
06:30 AM 57.6°F14.2°C 50.4°F10.2°C 77% 7.0 mph W11.3 kmh W 26.8 mph43.1 kmh 29.68 in1005.1 mb 0.00 in0.0 mm 0.00 in0.0 mm 0.00 in0.0 mm
06:45 AM 57.9°F14.4°C 50.8°F10.4°C 77% 6.4 mph WNW10.3 kmh WNW 16.5 mph26.6 kmh 29.68 in1005.1 mb 0.00 in0.0 mm 0.00 in0.0 mm 0.00 in0.0 mm
07:00 AM 58.3°F14.6°C 50.7°F10.4°C 76% 5.2 mph WNW8.4 kmh WNW 19.3 mph31.1 kmh 29.68 in1005.1 mb 0.00 in0.0 mm 0.00 in0.0 mm 0.00 in0.0 mm
07:15 AM 58.6°F14.8°C 50.4°F10.2°C 74% 8.8 mph NW14.2 kmh NW 16.8 mph27.0 kmh 29.71 in1006.1 mb 0.00 in0.0 mm 0.00 in0.0 mm 0.00 in0.0 mm
07:30 AM 59.2°F15.1°C 50.5°F10.3°C 73% 8.4 mph WNW13.5 kmh WNW 21.8 mph35.1 kmh 29.71 in1006.1 mb 0.00 in0.0 mm 0.00 in0.0 mm 0.00 in0.0 mm
07:45 AM 59.7°F15.4°C 51.0°F10.6°C 73% 8.9 mph WNW14.3 kmh WNW 17.5 mph28.2 kmh 29.71 in1006.1 mb 0.00 in0.0 mm 0.00 in0.0 mm 0.00 in0.0 mm
08:00 AM 60.4°F15.8°C 51.4°F10.8°C 72% 7.7 mph WNW12.4 kmh WNW 17.5 mph28.2 kmh 29.74 in1007.1 mb 0.00 in0.0 mm 0.00 in0.0 mm 0.00 in0.0 mm
08:15 AM 61.3°F16.3°C 51.9°F11.1°C 71% 6.7 mph WNW10.8 kmh WNW 19.3 mph31.1 kmh 29.74 in1007.1 mb 0.00 in0.0 mm 0.00 in0.0 mm 0.00 in0.0 mm
08:30 AM 61.7°F16.5°C 51.8°F11.0°C 70% 8.1 mph W13.0 kmh W 24.3 mph39.1 kmh 29.74 in1007.1 mb 0.00 in0.0 mm 0.00 in0.0 mm 0.00 in0.0 mm
08:45 AM 61.9°F16.6°C 52.0°F11.1°C 70% 7.1 mph NW11.4 kmh NW 24.3 mph39.1 kmh 29.74 in1007.1 mb 0.00 in0.0 mm 0.00 in0.0 mm 0.00 in0.0 mm
09:00 AM 62.6°F17.0°C 52.3°F11.3°C 69% 7.5 mph NW12.1 kmh NW 17.5 mph28.2 kmh 29.74 in1007.1 mb 0.00 in0.0 mm 0.00 in0.0 mm 0.00 in0.0 mm
09:15 AM 62.6°F17.0°C 51.1°F10.6°C 66% 6.7 mph WNW10.8 kmh WNW 21.5 mph34.6 kmh 29.77 in1008.1 mb 0.00 in0.0 mm 0.00 in0.0 mm 0.00 in0.0 mm
09:30 AM 62.8°F17.1°C 52.1°F11.2°C 68% 6.7 mph WNW10.8 kmh WNW 16.1 mph25.9 kmh 29.80 in1009.1 mb 0.00 in0.0 mm 0.00 in0.0 mm 0.00 in0.0 mm
09:45 AM 63.5°F17.5°C 52.3°F11.3°C 67% 8.8 mph NW14.2 kmh NW 23.6 mph38.0 kmh 29.80 in1009.1 mb 0.00 in0.0 mm 0.00 in0.0 mm 0.00 in0.0 mm
10:00 AM 63.7°F17.6°C 52.1°F11.2°C 66% 7.9 mph WNW12.7 kmh WNW 21.1 mph34.0 kmh 29.80 in1009.1 mb 0.00 in0.0 mm 0.00 in0.0 mm 0.00 in0.0 mm
10:15 AM 63.3°F17.4°C 51.3°F10.7°C 65% 7.9 mph NW12.7 kmh NW 27.6 mph44.4 kmh 29.80 in1009.1 mb 0.00 in0.0 mm 0.00 in0.0 mm 0.00 in0.0 mm
10:30 AM 64.0°F17.8°C 52.4°F11.3°C 66% 8.0 mph WNW12.9 kmh WNW 29.0 mph46.7 kmh 29.77 in1008.1 mb 0.00 in0.0 mm 0.00 in0.0 mm 0.00 in0.0 mm
10:45 AM 64.0°F17.8°C 52.4°F11.3°C 66% 7.3 mph WNW11.7 kmh WNW 20.0 mph32.2 kmh 29.80 in1009.1 mb 0.00 in0.0 mm 0.00 in0.0 mm 0.00 in0.0 mm
11:00 AM 65.1°F18.4°C 53.5°F11.9°C 66% 7.2 mph WNW11.6 kmh WNW 16.5 mph26.6 kmh 29.80 in1009.1 mb 0.00 in0.0 mm 0.00 in0.0 mm 0.00 in0.0 mm
11:15 AM 65.3°F18.5°C 52.8°F11.6°C 64% 7.6 mph WNW12.2 kmh WNW 22.5 mph36.2 kmh 29.83 in1010.2 mb 0.00 in0.0 mm 0.00 in0.0 mm 0.00 in0.0 mm
11:30 AM 64.2°F17.9°C 52.2°F11.2°C 65% 6.4 mph WNW10.3 kmh WNW 13.6 mph21.9 kmh 29.83 in1010.2 mb 0.00 in0.0 mm 0.00 in0.0 mm 0.00 in0.0 mm
11:45 AM 64.4°F18.0°C 52.8°F11.6°C 66% 6.8 mph WNW10.9 kmh WNW 17.5 mph28.2 kmh 29.83 in1010.2 mb 0.00 in0.0 mm 0.00 in0.0 mm 0.00 in0.0 mm
12:00 PM 65.5°F18.6°C 53.0°F11.7°C 64% 6.2 mph NW10.0 kmh NW 17.2 mph27.7 kmh 29.86 in1011.2 mb 0.00 in0.0 mm 0.00 in0.0 mm 0.00 in0.0 mm
12:15 PM 66.0°F18.9°C 53.9°F12.2°C 65% 6.8 mph NW10.9 kmh NW 17.9 mph28.8 kmh 29.86 in1011.2 mb 0.00 in0.0 mm 0.00 in0.0 mm 0.00 in0.0 mm
12:30 PM 66.4°F19.1°C 53.4°F11.9°C 63% 6.0 mph WNW9.7 kmh WNW 14.3 mph23.0 kmh 29.86 in1011.2 mb 0.00 in0.0 mm 0.00 in0.0 mm 0.00 in0.0 mm
12:45 PM 65.8°F18.8°C 52.9°F11.6°C 63% 7.0 mph NW11.3 kmh NW 16.8 mph27.0 kmh 29.86 in1011.2 mb 0.00 in0.0 mm 0.00 in0.0 mm 0.00 in0.0 mm
01:00 PM 65.8°F18.8°C 52.9°F11.6°C 63% 6.4 mph WNW10.3 kmh WNW 24.7 mph39.8 kmh 29.89 in1012.2 mb 0.00 in0.0 mm 0.00 in0.0 mm 0.00 in0.0 mm
01:15 PM 65.5°F18.6°C 51.7°F10.9°C 61% 5.5 mph NW8.9 kmh NW 19.7 mph31.7 kmh 29.83 in1010.2 mb 0.00 in0.0 mm 0.00 in0.0 mm 0.00 in0.0 mm
01:30 PM 65.5°F18.6°C 52.5°F11.4°C 63% 5.7 mph NW9.2 kmh NW 17.2 mph27.7 kmh 29.86 in1011.2 mb 0.00 in0.0 mm 0.00 in0.0 mm 0.00 in0.0 mm
01:45 PM 66.6°F19.2°C 53.1°F11.7°C 62% 7.3 mph WNW11.7 kmh WNW 20.0 mph32.2 kmh 29.86 in1011.2 mb 0.00 in0.0 mm 0.00 in0.0 mm 0.00 in0.0 mm
02:00 PM 66.0°F18.9°C 51.7°F10.9°C 60% 6.4 mph WNW10.3 kmh WNW 17.5 mph28.2 kmh 29.89 in1012.2 mb 0.00 in0.0 mm 0.00 in0.0 mm 0.00 in0.0 mm
02:15 PM 65.5°F18.6°C 50.8°F10.4°C 59% 8.3 mph NW13.4 kmh NW 19.3 mph31.1 kmh 29.89 in1012.2 mb 0.00 in0.0 mm 0.00 in0.0 mm 0.00 in0.0 mm
02:30 PM 65.3°F18.5°C 50.6°F10.3°C 59% 7.7 mph WNW12.4 kmh WNW 16.8 mph27.0 kmh 29.89 in1012.2 mb 0.00 in0.0 mm 0.00 in0.0 mm 0.00 in0.0 mm
02:45 PM 65.1°F18.4°C 50.9°F10.5°C 60% 7.3 mph WNW11.7 kmh WNW 23.6 mph38.0 kmh 29.92 in1013.2 mb 0.00 in0.0 mm 0.00 in0.0 mm 0.00 in0.0 mm
03:00 PM 66.2°F19.0°C 51.4°F10.8°C 59% 7.1 mph WNW11.4 kmh WNW 16.1 mph25.9 kmh 29.92 in1013.2 mb 0.00 in0.0 mm 0.00 in0.0 mm 0.00 in0.0 mm
03:15 PM 65.7°F18.7°C 50.9°F10.5°C 59% 7.4 mph WNW11.9 kmh WNW 16.8 mph27.0 kmh 29.92 in1013.2 mb 0.00 in0.0 mm 0.00 in0.0 mm 0.00 in0.0 mm
03:30 PM 64.8°F18.2°C 50.1°F10.1°C 59% 7.2 mph W11.6 kmh W 20.4 mph32.8 kmh 29.92 in1013.2 mb 0.00 in0.0 mm 0.00 in0.0 mm 0.00 in0.0 mm
03:45 PM 65.1°F18.4°C 50.4°F10.2°C 59% 6.9 mph WNW11.1 kmh WNW 21.8 mph35.1 kmh 29.89 in1012.2 mb 0.00 in0.0 mm 0.00 in0.0 mm 0.00 in0.0 mm
04:00 PM 65.5°F18.6°C 50.8°F10.4°C 59% 7.2 mph WNW11.6 kmh WNW 21.8 mph35.1 kmh 29.89 in1012.2 mb 0.00 in0.0 mm 0.00 in0.0 mm 0.00 in0.0 mm
04:15 PM 65.1°F18.4°C 50.4°F10.2°C 59% 6.8 mph WNW10.9 kmh WNW 23.3 mph37.5 kmh 29.92 in1013.2 mb 0.00 in0.0 mm 0.00 in0.0 mm 0.00 in0.0 mm
04:30 PM 65.3°F18.5°C 50.6°F10.3°C 59% 7.4 mph WNW11.9 kmh WNW 21.1 mph34.0 kmh 29.92 in1013.2 mb 0.00 in0.0 mm 0.00 in0.0 mm 0.00 in0.0 mm
04:45 PM 64.8°F18.2°C 50.1°F10.1°C 59% 7.4 mph WNW11.9 kmh WNW 20.4 mph32.8 kmh 29.95 in1014.2 mb 0.00 in0.0 mm 0.00 in0.0 mm 0.00 in0.0 mm
05:00 PM 64.8°F18.2°C 50.1°F10.1°C 59% 5.9 mph W9.5 kmh W 16.8 mph27.0 kmh 29.95 in1014.2 mb 0.00 in0.0 mm 0.00 in0.0 mm 0.00 in0.0 mm
05:15 PM 64.0°F17.8°C 49.9°F9.9°C 60% 8.5 mph W13.7 kmh W 25.1 mph40.4 kmh 29.95 in1014.2 mb 0.00 in0.0 mm 0.00 in0.0 mm 0.00 in0.0 mm
05:30 PM 63.3°F17.4°C 49.2°F9.6°C 60% 6.8 mph WNW10.9 kmh WNW 19.7 mph31.7 kmh 29.95 in1014.2 mb 0.00 in0.0 mm 0.00 in0.0 mm 0.00 in0.0 mm
05:45 PM 62.6°F17.0°C 48.5°F9.2°C 60% 5.6 mph WNW9.0 kmh WNW 19.3 mph31.1 kmh 29.95 in1014.2 mb 0.00 in0.0 mm 0.00 in0.0 mm 0.00 in0.0 mm
06:00 PM 62.1°F16.7°C 48.4°F9.1°C 61% 7.8 mph W12.6 kmh W 17.2 mph27.7 kmh 29.95 in1014.2 mb 0.00 in0.0 mm 0.00 in0.0 mm 0.00 in0.0 mm
06:15 PM 61.7°F16.5°C 48.1°F8.9°C 61% 4.8 mph WNW7.7 kmh WNW 19.3 mph31.1 kmh 29.98 in1015.2 mb 0.00 in0.0 mm 0.00 in0.0 mm 0.00 in0.0 mm
06:30 PM 61.2°F16.2°C 48.0°F8.9°C 62% 4.5 mph WNW7.2 kmh WNW 9.3 mph15.0 kmh 29.98 in1015.2 mb 0.00 in0.0 mm 0.00 in0.0 mm 0.00 in0.0 mm
06:45 PM 60.8°F16.0°C 47.7°F8.7°C 62% 6.7 mph NW10.8 kmh NW 20.4 mph32.8 kmh 29.98 in1015.2 mb 0.00 in0.0 mm 0.00 in0.0 mm 0.00 in0.0 mm
07:00 PM 60.6°F15.9°C 47.9°F8.8°C 63% 6.3 mph WNW10.1 kmh WNW 11.8 mph19.0 kmh 29.98 in1015.2 mb 0.00 in0.0 mm 0.00 in0.0 mm 0.00 in0.0 mm
07:15 PM 60.1°F15.6°C 47.4°F8.6°C 63% 6.7 mph NW10.8 kmh NW 16.5 mph26.6 kmh 29.98 in1015.2 mb 0.00 in0.0 mm 0.00 in0.0 mm 0.00 in0.0 mm
07:30 PM 59.5°F15.3°C 47.3°F8.5°C 64% 5.9 mph WNW9.5 kmh WNW 10.4 mph16.7 kmh 29.98 in1015.2 mb 0.00 in0.0 mm 0.00 in0.0 mm 0.00 in0.0 mm
08:00 PM 58.3°F14.6°C 46.6°F8.1°C 65% 4.9 mph W7.9 kmh W 10.0 mph16.1 kmh 29.98 in1015.2 mb 0.00 in0.0 mm 0.00 in0.0 mm 0.00 in0.0 mm
10:00 PM 56.5°F13.6°C 46.8°F8.2°C 70% 4.1 mph WNW6.6 kmh WNW 7.9 mph12.7 kmh 30.04 in1017.3 mb 0.00 in0.0 mm 0.00 in0.0 mm 0.00 in0.0 mm
11:00 PM 56.8°F13.8°C 47.9°F8.8°C 72% 7.4 mph W11.9 kmh W 17.2 mph27.7 kmh 30.01 in1016.3 mb 0.00 in0.0 mm 0.00 in0.0 mm 0.00 in0.0 mm
11:15 PM 56.5°F13.6°C 47.6°F8.7°C 72% 4.1 mph WNW6.6 kmh WNW 17.5 mph28.2 kmh 30.04 in1017.3 mb 0.00 in0.0 mm 0.00 in0.0 mm 0.00 in0.0 mm
11:30 PM 56.5°F13.6°C 47.9°F8.8°C 73% 3.9 mph WNW6.3 kmh WNW 12.2 mph19.6 kmh 30.04 in1017.3 mb 0.00 in0.0 mm 0.00 in0.0 mm 0.00 in0.0 mm
11:45 PM 56.3°F13.5°C 47.8°F8.8°C 73% 1.7 mph W2.7 kmh W 5.4 mph8.7 kmh 30.04 in1017.3 mb 0.00 in0.0 mm 0.00 in0.0 mm 0.00 in0.0 mm